sensor_id;sensor_type;location;lat;lon;timestamp;pressure;altitude;pressure_sealevel;temperature;humidity
76866;BME280;66647;52.124;5.416;2023-03-03T00:01:47;102649.88;;;1.29;86.82
76866;BME280;66647;52.124;5.416;2023-03-03T00:04:14;102651.16;;;1.26;86.70
76866;BME280;66647;52.124;5.416;2023-03-03T00:06:41;102653.84;;;1.26;86.34
76866;BME280;66647;52.124;5.416;2023-03-03T00:09:10;102650.97;;;1.21;86.91
76866;BME280;66647;52.124;5.416;2023-03-03T00:11:36;102657.84;;;1.17;86.92
76866;BME280;66647;52.124;5.416;2023-03-03T00:14:17;102652.66;;;1.16;86.36
76866;BME280;66647;52.124;5.416;2023-03-03T00:16:46;102643.72;;;1.15;86.42
76866;BME280;66647;52.124;5.416;2023-03-03T00:19:17;102650.19;;;1.14;86.41
76866;BME280;66647;52.124;5.416;2023-03-03T00:21:46;102648.97;;;1.10;86.58
76866;BME280;66647;52.124;5.416;2023-03-03T00:26:41;102661.63;;;1.10;86.59
76866;BME280;66647;52.124;5.416;2023-03-03T00:29:25;102664.13;;;1.11;87.45
76866;BME280;66647;52.124;5.416;2023-03-03T00:31:52;102669.09;;;1.14;87.50
76866;BME280;66647;52.124;5.416;2023-03-03T00:34:24;102665.97;;;1.17;87.23
76866;BME280;66647;52.124;5.416;2023-03-03T00:36:54;102675.72;;;1.18;87.75
76866;BME280;66647;52.124;5.416;2023-03-03T00:39:35;102677.38;;;1.19;87.67
76866;BME280;66647;52.124;5.416;2023-03-03T00:42:13;102674.03;;;1.24;87.46
76866;BME280;66647;52.124;5.416;2023-03-03T00:44:43;102672.75;;;1.26;87.92
76866;BME280;66647;52.124;5.416;2023-03-03T00:49:42;102674.41;;;1.27;87.37
76866;BME280;66647;52.124;5.416;2023-03-03T00:52:17;102666.97;;;1.23;87.49
76866;BME280;66647;52.124;5.416;2023-03-03T00:54:45;102673.41;;;1.22;87.42
76866;BME280;66647;52.124;5.416;2023-03-03T00:57:11;102680.50;;;1.16;86.96
76866;BME280;66647;52.124;5.416;2023-03-03T00:59:40;102683.66;;;1.13;87.24
76866;BME280;66647;52.124;5.416;2023-03-03T01:02:07;102676.81;;;1.11;87.47
76866;BME280;66647;52.124;5.416;2023-03-03T01:04:33;102674.09;;;1.11;87.77
76866;BME280;66647;52.124;5.416;2023-03-03T01:07:00;102679.50;;;1.11;87.56
76866;BME280;66647;52.124;5.416;2023-03-03T01:09:26;102683.66;;;1.13;87.76
76866;BME280;66647;52.124;5.416;2023-03-03T01:11:53;102686.56;;;1.12;87.71
76866;BME280;66647;52.124;5.416;2023-03-03T01:14:20;102674.94;;;1.11;87.20
76866;BME280;66647;52.124;5.416;2023-03-03T01:16:47;102685.72;;;1.11;88.18
76866;BME280;66647;52.124;5.416;2023-03-03T01:19:16;102689.06;;;1.13;87.70
76866;BME280;66647;52.124;5.416;2023-03-03T01:21:45;102689.47;;;1.10;88.02
76866;BME280;66647;52.124;5.416;2023-03-03T01:24:12;102683.66;;;1.13;87.88
76866;BME280;66647;52.124;5.416;2023-03-03T01:26:38;102679.06;;;1.14;87.27
76866;BME280;66647;52.124;5.416;2023-03-03T01:29:05;102677.84;;;1.10;87.92
76866;BME280;66647;52.124;5.416;2023-03-03T01:31:31;102679.09;;;1.07;87.38
76866;BME280;66647;52.124;5.416;2023-03-03T01:33:59;102678.06;;;1.08;87.77
76866;BME280;66647;52.124;5.416;2023-03-03T01:36:26;102679.09;;;1.07;88.05
76866;BME280;66647;52.124;5.416;2023-03-03T01:38:53;102668.72;;;1.04;87.53
76866;BME280;66647;52.124;5.416;2023-03-03T01:41:20;102681.19;;;1.05;88.30
76866;BME280;66647;52.124;5.416;2023-03-03T01:43:49;102684.09;;;1.04;87.70
76866;BME280;66647;52.124;5.416;2023-03-03T01:51:54;102682.19;;;1.11;87.77
76866;BME280;66647;52.124;5.416;2023-03-03T01:54:27;102684.06;;;1.10;87.95
76866;BME280;66647;52.124;5.416;2023-03-03T01:56:58;102682.84;;;1.06;88.08
76866;BME280;66647;52.124;5.416;2023-03-03T01:59:33;102679.53;;;1.04;88.31
76866;BME280;66647;52.124;5.416;2023-03-03T02:02:03;102679.13;;;1.00;88.46
76866;BME280;66647;52.124;5.416;2023-03-03T02:04:29;102685.00;;;0.97;88.23
76866;BME280;66647;52.124;5.416;2023-03-03T02:06:59;102686.03;;;0.96;88.13
76866;BME280;66647;52.124;5.416;2023-03-03T02:09:39;102682.94;;;0.93;88.49
76866;BME280;66647;52.124;5.416;2023-03-03T02:12:10;102686.25;;;0.95;88.30
76866;BME280;66647;52.124;5.416;2023-03-03T02:14:37;102684.81;;;0.92;88.10
76866;BME280;66647;52.124;5.416;2023-03-03T02:17:04;102683.56;;;0.95;88.33
76866;BME280;66647;52.124;5.416;2023-03-03T02:19:39;102680.25;;;0.93;88.40
76866;BME280;66647;52.124;5.416;2023-03-03T02:22:10;102682.34;;;0.91;88.43
76866;BME280;66647;52.124;5.416;2023-03-03T02:24:50;102682.53;;;0.89;88.20
76866;BME280;66647;52.124;5.416;2023-03-03T02:27:18;102682.53;;;0.89;88.13
76866;BME280;66647;52.124;5.416;2023-03-03T02:29:45;102677.97;;;0.90;87.85
76866;BME280;66647;52.124;5.416;2023-03-03T02:32:12;102681.28;;;0.92;88.07
76866;BME280;66647;52.124;5.416;2023-03-03T02:34:50;102683.16;;;0.91;88.09
76866;BME280;66647;52.124;5.416;2023-03-03T02:37:18;102686.25;;;0.95;88.19
76866;BME280;66647;52.124;5.416;2023-03-03T02:39:45;102684.81;;;0.92;87.74
76866;BME280;66647;52.124;5.416;2023-03-03T02:42:26;102676.94;;;0.91;88.28
76866;BME280;66647;52.124;5.416;2023-03-03T02:44:56;102681.72;;;0.89;88.00
76866;BME280;66647;52.124;5.416;2023-03-03T02:47:25;102682.97;;;0.86;88.06
76866;BME280;66647;52.124;5.416;2023-03-03T02:49:51;102675.53;;;0.82;88.31
76866;BME280;66647;52.124;5.416;2023-03-03T02:52:18;102681.75;;;0.82;88.31
76866;BME280;66647;52.124;5.416;2023-03-03T02:54:46;102687.75;;;0.84;88.34
76866;BME280;66647;52.124;5.416;2023-03-03T02:57:12;102682.16;;;0.86;87.82
76866;BME280;66647;52.124;5.416;2023-03-03T02:59:39;102691.06;;;0.86;88.04
76866;BME280;66647;52.124;5.416;2023-03-03T03:02:09;102687.56;;;0.86;87.83
76866;BME280;66647;52.124;5.416;2023-03-03T03:04:36;102688.16;;;0.88;88.29
76866;BME280;66647;52.124;5.416;2023-03-03T03:07:03;102684.41;;;0.89;88.42
76866;BME280;66647;52.124;5.416;2023-03-03T03:09:31;102684.59;;;0.94;88.32
76866;BME280;66647;52.124;5.416;2023-03-03T03:11:58;102688.97;;;0.95;87.91
76866;BME280;66647;52.124;5.416;2023-03-03T03:14:31;102686.47;;;0.93;88.05
76866;BME280;66647;52.124;5.416;2023-03-03T03:16:57;102685.44;;;0.94;87.77
76866;BME280;66647;52.124;5.416;2023-03-03T03:19:26;102682.53;;;0.89;88.17
76866;BME280;66647;52.124;5.416;2023-03-03T03:21:53;102687.53;;;0.92;88.35
76866;BME280;66647;52.124;5.416;2023-03-03T03:24:20;102680.47;;;0.91;88.06
76866;BME280;66647;52.124;5.416;2023-03-03T03:26:52;102681.72;;;0.89;88.05
76866;BME280;66647;52.124;5.416;2023-03-03T03:29:20;102685.06;;;0.84;88.02
76866;BME280;66647;52.124;5.416;2023-03-03T03:31:47;102684.63;;;0.87;88.05
76866;BME280;66647;52.124;5.416;2023-03-03T03:34:14;102689.63;;;0.84;88.16
76866;BME280;66647;52.124;5.416;2023-03-03T03:36:42;102686.50;;;0.87;88.79
76866;BME280;66647;52.124;5.416;2023-03-03T03:39:10;102686.72;;;0.85;88.35
76866;BME280;66647;52.124;5.416;2023-03-03T03:41:41;102692.13;;;0.85;88.68
76866;BME280;66647;52.124;5.416;2023-03-03T03:44:08;102691.28;;;0.85;88.67
76866;BME280;66647;52.124;5.416;2023-03-03T03:46:34;102687.75;;;0.84;88.37
76866;BME280;66647;52.124;5.416;2023-03-03T03:49:01;102694.00;;;0.85;88.48
76866;BME280;66647;52.124;5.416;2023-03-03T03:51:28;102695.88;;;0.84;88.32
76866;BME280;66647;52.124;5.416;2023-03-03T03:53:57;102700.00;;;0.87;88.86
76866;BME280;66647;52.124;5.416;2023-03-03T03:56:23;102699.56;;;0.90;88.40
76866;BME280;66647;52.124;5.416;2023-03-03T03:58:53;102700.63;;;0.89;88.59
76866;BME280;66647;52.124;5.416;2023-03-03T04:01:20;102699.41;;;0.85;88.49
76866;BME280;66647;52.124;5.416;2023-03-03T04:03:49;102710.41;;;0.83;88.46
76866;BME280;66647;52.124;5.416;2023-03-03T04:06:19;102704.56;;;0.86;88.47
76866;BME280;66647;52.124;5.416;2023-03-03T04:08:46;102709.97;;;0.86;88.71
76866;BME280;66647;52.124;5.416;2023-03-03T04:11:13;102711.84;;;0.86;88.54
76866;BME280;66647;52.124;5.416;2023-03-03T04:13:40;102707.91;;;0.82;89.14
76866;BME280;66647;52.124;5.416;2023-03-03T04:16:08;102695.47;;;0.81;89.38
76866;BME280;66647;52.124;5.416;2023-03-03T04:18:36;102707.91;;;0.82;89.24
76866;BME280;66647;52.124;5.416;2023-03-03T04:21:03;102705.84;;;0.84;89.01
76866;BME280;66647;52.124;5.416;2023-03-03T04:23:31;102709.78;;;0.81;89.25
76866;BME280;66647;52.124;5.416;2023-03-03T04:25:59;102704.00;;;0.78;89.27
76866;BME280;66647;52.124;5.416;2023-03-03T04:28:26;102699.19;;;0.80;89.63
76866;BME280;66647;52.124;5.416;2023-03-03T04:30:53;102709.56;;;0.83;89.57
76866;BME280;66647;52.124;5.416;2023-03-03T04:33:21;102705.22;;;0.82;89.64
76866;BME280;66647;52.124;5.416;2023-03-03T04:35:48;102699.19;;;0.80;89.57
76866;BME280;66647;52.124;5.416;2023-03-03T04:38:15;102698.38;;;0.79;89.48
76866;BME280;66647;52.124;5.416;2023-03-03T04:40:45;102704.59;;;0.80;89.83
76866;BME280;66647;52.124;5.416;2023-03-03T04:43:12;102703.16;;;0.77;89.63
76866;BME280;66647;52.124;5.416;2023-03-03T04:45:40;102700.84;;;0.81;89.95
76866;BME280;66647;52.124;5.416;2023-03-03T04:48:07;102711.25;;;0.84;89.56
76866;BME280;66647;52.124;5.416;2023-03-03T04:50:35;102715.59;;;0.85;89.69
76866;BME280;66647;52.124;5.416;2023-03-03T04:53:02;102717.69;;;0.83;90.20
76866;BME280;66647;52.124;5.416;2023-03-03T04:55:29;102711.03;;;0.79;90.07
76866;BME280;66647;52.124;5.416;2023-03-03T04:57:56;102715.84;;;0.77;90.24
76866;BME280;66647;52.124;5.416;2023-03-03T05:00:23;102718.31;;;0.78;89.94
76866;BME280;66647;52.124;5.416;2023-03-03T05:02:50;102717.28;;;0.79;90.38
76866;BME280;66647;52.124;5.416;2023-03-03T05:05:18;102710.63;;;0.82;90.55
76866;BME280;66647;52.124;5.416;2023-03-03T05:07:44;102703.78;;;0.79;90.44
76866;BME280;66647;52.124;5.416;2023-03-03T05:10:11;102695.88;;;0.78;90.57
76866;BME280;66647;52.124;5.416;2023-03-03T05:12:37;102706.69;;;0.78;90.90
76866;BME280;66647;52.124;5.416;2023-03-03T05:15:04;102700.25;;;0.79;91.02
76866;BME280;66647;52.124;5.416;2023-03-03T05:17:31;102699.00;;;0.81;91.13
76866;BME280;66647;52.124;5.416;2023-03-03T05:19:58;102702.53;;;0.82;91.33
76866;BME280;66647;52.124;5.416;2023-03-03T05:22:24;102713.94;;;0.84;91.24
76866;BME280;66647;52.124;5.416;2023-03-03T05:24:52;102705.41;;;0.87;90.92
76866;BME280;66647;52.124;5.416;2023-03-03T05:27:19;102706.03;;;0.89;91.44
76866;BME280;66647;52.124;5.416;2023-03-03T05:29:45;102707.69;;;0.90;91.46
76866;BME280;66647;52.124;5.416;2023-03-03T05:32:12;102713.47;;;0.93;91.16
76866;BME280;66647;52.124;5.416;2023-03-03T05:34:38;102713.28;;;0.95;91.23
76866;BME280;66647;52.124;5.416;2023-03-03T05:37:05;102712.03;;;0.91;91.25
76866;BME280;66647;52.124;5.416;2023-03-03T05:39:33;102708.09;;;0.93;91.30
76866;BME280;66647;52.124;5.416;2023-03-03T05:41:59;102703.94;;;0.91;91.51
76866;BME280;66647;52.124;5.416;2023-03-03T05:44:29;102708.28;;;0.92;92.15
76866;BME280;66647;52.124;5.416;2023-03-03T05:46:56;102709.34;;;0.91;92.04
76866;BME280;66647;52.124;5.416;2023-03-03T05:49:23;102701.84;;;0.93;91.81
76866;BME280;66647;52.124;5.416;2023-03-03T05:51:54;102710.56;;;0.95;91.52
76866;BME280;66647;52.124;5.416;2023-03-03T05:54:21;102710.09;;;0.98;91.88
76866;BME280;66647;52.124;5.416;2023-03-03T05:56:47;102706.59;;;0.97;92.16
76866;BME280;66647;52.124;5.416;2023-03-03T05:59:14;102716.34;;;0.98;91.92
76866;BME280;66647;52.124;5.416;2023-03-03T06:01:41;102710.72;;;1.00;92.22
76866;BME280;66647;52.124;5.416;2023-03-03T06:04:07;102716.53;;;1.04;91.96
76866;BME280;66647;52.124;5.416;2023-03-03T06:06:34;102717.34;;;1.04;92.44
76866;BME280;66647;52.124;5.416;2023-03-03T06:09:04;102724.41;;;1.05;92.24
76866;BME280;66647;52.124;5.416;2023-03-03T06:11:30;102720.06;;;1.04;92.38
76866;BME280;66647;52.124;5.416;2023-03-03T06:13:57;102716.31;;;1.05;92.07
76866;BME280;66647;52.124;5.416;2023-03-03T06:16:23;102720.06;;;1.04;92.57
76866;BME280;66647;52.124;5.416;2023-03-03T06:18:50;102733.13;;;1.07;92.41
76866;BME280;66647;52.124;5.416;2023-03-03T06:21:16;102726.06;;;1.06;92.48
76866;BME280;66647;52.124;5.416;2023-03-03T06:23:43;102729.38;;;1.08;92.48
76866;BME280;66647;52.124;5.416;2023-03-03T06:26:13;102728.56;;;1.08;92.53
76866;BME280;66647;52.124;5.416;2023-03-03T06:28:39;102727.31;;;1.10;92.88
76866;BME280;66647;52.124;5.416;2023-03-03T06:31:06;102737.50;;;1.08;92.44
76866;BME280;66647;52.124;5.416;2023-03-03T06:33:32;102732.69;;;1.10;92.79
76866;BME280;66647;52.124;5.416;2023-03-03T06:35:59;102726.69;;;1.08;92.61
76866;BME280;66647;52.124;5.416;2023-03-03T06:38:25;102734.16;;;1.06;93.20
76866;BME280;66647;52.124;5.416;2023-03-03T06:40:52;102737.91;;;1.05;93.51
76866;BME280;66647;52.124;5.416;2023-03-03T06:43:18;102739.56;;;1.06;93.36
76866;BME280;66647;52.124;5.416;2023-03-03T06:45:45;102747.25;;;1.09;93.50
76866;BME280;66647;52.124;5.416;2023-03-03T06:48:12;102740.81;;;1.10;93.14
76866;BME280;66647;52.124;5.416;2023-03-03T06:50:38;102743.50;;;1.10;93.43
76866;BME280;66647;52.124;5.416;2023-03-03T06:53:13;102745.78;;;1.13;93.68
76866;BME280;66647;52.124;5.416;2023-03-03T06:55:41;102757.19;;;1.15;93.76
76866;BME280;66647;52.124;5.416;2023-03-03T06:58:16;102757.59;;;1.19;93.76
76866;BME280;66647;52.124;5.416;2023-03-03T07:00:55;102756.56;;;1.20;93.55
76866;BME280;66647;52.124;5.416;2023-03-03T07:03:24;102758.00;;;1.22;93.51
76866;BME280;66647;52.124;5.416;2023-03-03T07:05:53;102758.81;;;1.23;93.63
76866;BME280;66647;52.124;5.416;2023-03-03T07:08:22;102764.84;;;1.25;93.46
76866;BME280;66647;52.124;5.416;2023-03-03T07:10:50;102763.81;;;1.26;93.51
76866;BME280;66647;52.124;5.416;2023-03-03T07:13:21;102775.84;;;1.30;93.38
76866;BME280;66647;52.124;5.416;2023-03-03T07:15:51;102771.84;;;1.32;93.30
76866;BME280;66647;52.124;5.416;2023-03-03T07:18:34;102784.09;;;1.35;93.39
76866;BME280;66647;52.124;5.416;2023-03-03T07:21:27;102785.31;;;1.39;93.70
76866;BME280;66647;52.124;5.416;2023-03-03T07:23:56;102778.66;;;1.42;93.38
76866;BME280;66647;52.124;5.416;2023-03-03T07:26:27;102789.47;;;1.42;93.62
76866;BME280;66647;52.124;5.416;2023-03-03T07:29:25;102784.06;;;1.42;93.46
76866;BME280;66647;52.124;5.416;2023-03-03T07:31:54;102779.91;;;1.39;93.44
76866;BME280;66647;52.124;5.416;2023-03-03T07:34:23;102786.78;;;1.42;93.50
76866;BME280;66647;52.124;5.416;2023-03-03T07:36:57;102784.25;;;1.47;93.69
76866;BME280;66647;52.124;5.416;2023-03-03T07:39:30;102784.88;;;1.49;93.72
76866;BME280;66647;52.124;5.416;2023-03-03T07:42:08;102796.06;;;1.52;93.10
76866;BME280;66647;52.124;5.416;2023-03-03T07:44:39;102802.91;;;1.55;93.01
76866;BME280;66647;52.124;5.416;2023-03-03T07:47:29;102796.03;;;1.59;93.08
76866;BME280;66647;52.124;5.416;2023-03-03T07:49:59;102803.09;;;1.60;93.65
76866;BME280;66647;52.124;5.416;2023-03-03T07:55:35;102810.94;;;1.68;93.42
76866;BME280;66647;52.124;5.416;2023-03-03T08:03:15;102815.44;;;1.81;92.67
76866;BME280;66647;52.124;5.416;2023-03-03T08:05:46;102820.19;;;1.85;92.80
76866;BME280;66647;52.124;5.416;2023-03-03T08:08:32;102817.06;;;1.88;92.99
76866;BME280;66647;52.124;5.416;2023-03-03T08:11:03;102823.69;;;1.92;92.88
76866;BME280;66647;52.124;5.416;2023-03-03T08:18:37;102828.81;;;2.00;92.40
76866;BME280;66647;52.124;5.416;2023-03-03T08:21:11;102842.31;;;2.00;92.51
76866;BME280;66647;52.124;5.416;2023-03-03T08:23:40;102834.81;;;2.02;92.73
76866;BME280;66647;52.124;5.416;2023-03-03T08:26:07;102842.50;;;2.06;92.59
76866;BME280;66647;52.124;5.416;2023-03-03T08:28:34;102845.00;;;2.07;92.70
76866;BME280;66647;52.124;5.416;2023-03-03T08:31:02;102844.56;;;2.10;92.77
76866;BME280;66647;52.124;5.416;2023-03-03T08:33:46;102839.53;;;2.14;92.19
76866;BME280;66647;52.124;5.416;2023-03-03T08:36:13;102845.34;;;2.17;92.52
76866;BME280;66647;52.124;5.416;2023-03-03T08:38:39;102848.22;;;2.22;91.97
76866;BME280;66647;52.124;5.416;2023-03-03T08:41:06;102839.44;;;2.27;91.92
76866;BME280;66647;52.124;5.416;2023-03-03T08:43:33;102853.94;;;2.32;92.32
76866;BME280;66647;52.124;5.416;2023-03-03T08:46:01;102852.22;;;2.38;91.96
76866;BME280;66647;52.124;5.416;2023-03-03T08:48:28;102846.59;;;2.40;91.64
76866;BME280;66647;52.124;5.416;2023-03-03T08:50:54;102842.19;;;2.45;92.02
76866;BME280;66647;52.124;5.416;2023-03-03T08:53:22;102845.66;;;2.52;91.42
76866;BME280;66647;52.124;5.416;2023-03-03T08:55:49;102848.53;;;2.57;91.89
76866;BME280;66647;52.124;5.416;2023-03-03T08:58:17;102850.94;;;2.65;91.08
76866;BME280;66647;52.124;5.416;2023-03-03T09:00:44;102847.34;;;2.90;92.45
76866;BME280;66647;52.124;5.416;2023-03-03T09:03:15;102851.94;;;3.08;90.97
76866;BME280;66647;52.124;5.416;2023-03-03T09:05:42;102847.56;;;3.07;90.35
76866;BME280;66647;52.124;5.416;2023-03-03T09:08:10;102854.41;;;3.09;89.84
76866;BME280;66647;52.124;5.416;2023-03-03T09:10:37;102846.59;;;3.19;89.49
76866;BME280;66647;52.124;5.416;2023-03-03T09:13:13;102849.09;;;3.21;89.27
76866;BME280;66647;52.124;5.416;2023-03-03T09:15:42;102847.44;;;3.20;89.53
76866;BME280;66647;52.124;5.416;2023-03-03T09:23:30;102853.50;;;3.33;88.97
76866;BME280;66647;52.124;5.416;2023-03-03T09:28:37;102851.06;;;3.44;88.15
76866;BME280;66647;52.124;5.416;2023-03-03T09:31:20;102853.72;;;3.50;88.49
76866;BME280;66647;52.124;5.416;2023-03-03T09:33:50;102851.00;;;3.50;88.31
76866;BME280;66647;52.124;5.416;2023-03-03T09:38:51;102846.06;;;3.59;87.84
76866;BME280;66647;52.124;5.416;2023-03-03T09:41:50;102852.00;;;3.67;87.15
76866;BME280;66647;52.124;5.416;2023-03-03T09:52:39;102853.47;;;3.82;86.02
76866;BME280;66647;52.124;5.416;2023-03-03T10:03:53;102855.31;;;4.11;86.03
76866;BME280;66647;52.124;5.416;2023-03-03T10:12:26;102855.06;;;5.18;84.14
76866;BME280;66647;52.124;5.416;2023-03-03T10:17:52;102845.09;;;7.95;75.80
76866;BME280;66647;52.124;5.416;2023-03-03T10:26:16;102834.16;;;10.29;63.25
76866;BME280;66647;52.124;5.416;2023-03-03T10:31:57;102840.16;;;10.57;59.82
76866;BME280;66647;52.124;5.416;2023-03-03T10:54:29;102833.50;;;13.07;52.29
76866;BME280;66647;52.124;5.416;2023-03-03T10:57:25;102833.06;;;13.24;52.17
76866;BME280;66647;52.124;5.416;2023-03-03T11:05:39;102838.94;;;12.94;51.68
76866;BME280;66647;52.124;5.416;2023-03-03T11:08:14;102822.88;;;13.25;49.57
76866;BME280;66647;52.124;5.416;2023-03-03T11:10:51;102828.56;;;12.86;51.31
76866;BME280;66647;52.124;5.416;2023-03-03T11:13:51;102833.38;;;12.70;52.86
76866;BME280;66647;52.124;5.416;2023-03-03T11:22:16;102840.34;;;11.01;55.16
76866;BME280;66647;52.124;5.416;2023-03-03T11:24:59;102829.25;;;11.21;55.05
76866;BME280;66647;52.124;5.416;2023-03-03T11:27:48;102831.00;;;10.97;54.02
76866;BME280;66647;52.124;5.416;2023-03-03T11:33:30;102820.16;;;11.80;53.81
76866;BME280;66647;52.124;5.416;2023-03-03T11:36:31;102810.91;;;12.87;51.14
76866;BME280;66647;52.124;5.416;2023-03-03T11:39:12;102819.63;;;13.60;48.44
76866;BME280;66647;52.124;5.416;2023-03-03T11:53:32;102817.88;;;11.92;50.39
76866;BME280;66647;52.124;5.416;2023-03-03T11:56:20;102821.97;;;11.51;51.79
76866;BME280;66647;52.124;5.416;2023-03-03T11:59:31;102812.75;;;12.15;51.19
76866;BME280;66647;52.124;5.416;2023-03-03T12:02:25;102794.72;;;13.47;48.37
76866;BME280;66647;52.124;5.416;2023-03-03T12:13:51;102795.44;;;12.91;46.89
76866;BME280;66647;52.124;5.416;2023-03-03T12:19:24;102787.47;;;14.21;45.48
76866;BME280;66647;52.124;5.416;2023-03-03T12:24:45;102779.94;;;14.40;43.29
76866;BME280;66647;52.124;5.416;2023-03-03T12:41:33;102777.75;;;11.91;48.10
76866;BME280;66647;52.124;5.416;2023-03-03T12:44:15;102786.25;;;11.51;50.40
76866;BME280;66647;52.124;5.416;2023-03-03T12:47:26;102785.09;;;11.62;49.18
76866;BME280;66647;52.124;5.416;2023-03-03T12:52:42;102769.03;;;11.79;48.64
76866;BME280;66647;52.124;5.416;2023-03-03T12:58:42;102770.00;;;11.98;47.33
76866;BME280;66647;52.124;5.416;2023-03-03T13:07:18;102769.09;;;10.60;51.96
76866;BME280;66647;52.124;5.416;2023-03-03T13:10:13;102770.81;;;10.31;53.67
76866;BME280;66647;52.124;5.416;2023-03-03T13:12:55;102772.47;;;10.01;54.54
76866;BME280;66647;52.124;5.416;2023-03-03T13:15:27;102769.72;;;9.96;55.53
76866;BME280;66647;52.124;5.416;2023-03-03T13:18:27;102770.28;;;10.03;54.81
76866;BME280;66647;52.124;5.416;2023-03-03T13:21:11;102763.69;;;9.89;55.00
76866;BME280;66647;52.124;5.416;2023-03-03T13:26:38;102765.34;;;9.90;54.42
76866;BME280;66647;52.124;5.416;2023-03-03T13:29:24;102764.22;;;9.91;54.10
76866;BME280;66647;52.124;5.416;2023-03-03T13:31:59;102768.34;;;9.99;52.62
76866;BME280;66647;52.124;5.416;2023-03-03T13:37:20;102763.13;;;9.87;52.97
76866;BME280;66647;52.124;5.416;2023-03-03T13:39:59;102768.91;;;9.70;53.88
76866;BME280;66647;52.124;5.416;2023-03-03T13:42:41;102769.97;;;9.59;54.88
76866;BME280;66647;52.124;5.416;2023-03-03T13:45:41;102772.41;;;9.51;55.21
76866;BME280;66647;52.124;5.416;2023-03-03T13:51:17;102766.91;;;9.30;56.21
76866;BME280;66647;52.124;5.416;2023-03-03T13:54:29;102760.88;;;9.23;56.46
76866;BME280;66647;52.124;5.416;2023-03-03T13:59:49;102762.47;;;9.14;56.95
76866;BME280;66647;52.124;5.416;2023-03-03T14:02:46;102761.91;;;9.07;57.65
76866;BME280;66647;52.124;5.416;2023-03-03T14:05:25;102758.91;;;9.08;57.20
76866;BME280;66647;52.124;5.416;2023-03-03T14:07:58;102759.75;;;9.09;57.39
76866;BME280;66647;52.124;5.416;2023-03-03T14:10:42;102762.75;;;9.07;56.89
76866;BME280;66647;52.124;5.416;2023-03-03T14:13:18;102757.50;;;9.01;56.43
76866;BME280;66647;52.124;5.416;2023-03-03T14:16:04;102756.34;;;8.87;56.11
76866;BME280;66647;52.124;5.416;2023-03-03T14:18:59;102755.78;;;8.85;57.09
76866;BME280;66647;52.124;5.416;2023-03-03T14:21:44;102751.97;;;8.86;56.56
76866;BME280;66647;52.124;5.416;2023-03-03T14:24:19;102751.72;;;8.92;56.33
76866;BME280;66647;52.124;5.416;2023-03-03T14:26:52;102750.09;;;8.91;56.80
76866;BME280;66647;52.124;5.416;2023-03-03T14:32:01;102745.16;;;8.93;56.20
76866;BME280;66647;52.124;5.416;2023-03-03T14:34:29;102744.34;;;8.93;55.46
76866;BME280;66647;52.124;5.416;2023-03-03T14:37:20;102737.75;;;8.89;55.50
76866;BME280;66647;52.124;5.416;2023-03-03T14:40:20;102738.59;;;8.94;56.50
76866;BME280;66647;52.124;5.416;2023-03-03T14:45:39;102744.91;;;8.95;55.34
76866;BME280;66647;52.124;5.416;2023-03-03T14:48:18;102741.28;;;8.74;53.27
76866;BME280;66647;52.124;5.416;2023-03-03T14:50:59;102739.91;;;8.71;54.68
76866;BME280;66647;52.124;5.416;2023-03-03T14:53:44;102735.00;;;8.84;53.81
76866;BME280;66647;52.124;5.416;2023-03-03T14:56:27;102732.25;;;8.84;53.82
76866;BME280;66647;52.124;5.416;2023-03-03T14:59:16;102737.19;;;8.82;53.32
76866;BME280;66647;52.124;5.416;2023-03-03T15:01:44;102740.47;;;8.84;53.96
76866;BME280;66647;52.124;5.416;2023-03-03T15:04:33;102729.50;;;8.79;54.45
76866;BME280;66647;52.124;5.416;2023-03-03T15:07:18;102726.25;;;8.77;54.78
76866;BME280;66647;52.124;5.416;2023-03-03T15:09:49;102722.94;;;8.69;55.46
76866;BME280;66647;52.124;5.416;2023-03-03T15:12:37;102732.75;;;8.65;55.81
76866;BME280;66647;52.124;5.416;2023-03-03T15:15:20;102727.50;;;8.59;56.06
76866;BME280;66647;52.124;5.416;2023-03-03T15:17:56;102734.28;;;8.46;56.38
76866;BME280;66647;52.124;5.416;2023-03-03T15:20:41;102726.34;;;8.39;57.12
76866;BME280;66647;52.124;5.416;2023-03-03T15:26:01;102721.56;;;8.25;57.21
76866;BME280;66647;52.124;5.416;2023-03-03T15:36:48;102712.50;;;8.19;56.97
76866;BME280;66647;52.124;5.416;2023-03-03T16:04:25;102707.88;;;7.83;55.71
76866;BME280;66647;52.124;5.416;2023-03-03T16:12:20;102719.88;;;7.77;57.02
76866;BME280;66647;52.124;5.416;2023-03-03T16:15:19;102711.38;;;7.73;57.31
76866;BME280;66647;52.124;5.416;2023-03-03T16:21:27;102716.78;;;7.68;57.90
76866;BME280;66647;52.124;5.416;2023-03-03T16:24:22;102725.53;;;7.70;57.69
76866;BME280;66647;52.124;5.416;2023-03-03T16:27:05;102715.66;;;7.64;57.44
76866;BME280;66647;52.124;5.416;2023-03-03T16:34:20;102711.19;;;7.53;57.27
76866;BME280;66647;52.124;5.416;2023-03-03T16:37:58;102719.88;;;7.50;58.45
76866;BME280;66647;52.124;5.416;2023-03-03T16:41:06;102704.00;;;7.41;57.29
76866;BME280;66647;52.124;5.416;2023-03-03T16:43:45;102704.25;;;7.40;57.49
76866;BME280;66647;52.124;5.416;2023-03-03T16:46:33;102707.81;;;7.40;58.67
76866;BME280;66647;52.124;5.416;2023-03-03T16:52:00;102710.84;;;7.44;58.56
76866;BME280;66647;52.124;5.416;2023-03-03T16:59:41;102714.88;;;7.36;59.53
76866;BME280;66647;52.124;5.416;2023-03-03T17:04:53;102720.78;;;7.28;59.65
76866;BME280;66647;52.124;5.416;2023-03-03T17:10:36;102714.69;;;7.21;60.24
76866;BME280;66647;52.124;5.416;2023-03-03T17:13:27;102721.81;;;7.22;59.80
76866;BME280;66647;52.124;5.416;2023-03-03T17:16:13;102721.53;;;7.24;59.86
76866;BME280;66647;52.124;5.416;2023-03-03T17:21:19;102722.13;;;7.26;60.56
76866;BME280;66647;52.124;5.416;2023-03-03T17:29:52;102738.38;;;7.16;60.08
76866;BME280;66647;52.124;5.416;2023-03-03T17:32:49;102730.47;;;7.14;61.08
76866;BME280;66647;52.124;5.416;2023-03-03T17:35:24;102734.22;;;7.08;60.71
76866;BME280;66647;52.124;5.416;2023-03-03T17:40:50;102742.34;;;7.03;61.08